Time;durP1;ratioP1;P1;durP2;ratioP2;P2;SDS_P1;SDS_P2;PMS_P1;PMS_P2;Temp;Humidity;BMP_temperature;BMP_pressure;BME280_temperature;BME280_humidity;BME280_pressure;Samples;Min_cycle;Max_cycle;Signal;HPM_P1;HPM_P2
2022/11/09 00:09:08;;;;;;;7.90;4.50;;;7.00;99.90;;;;;;21144105;27;20032;-66
2022/11/09 00:19:12;;;;;;;5.15;3.40;;;7.00;99.90;;;;;;21121050;28;20382;-55
2022/11/09 00:29:15;;;;;;;9.82;5.70;;;7.20;99.90;;;;;;21059694;28;20036;-56
2022/11/09 00:39:18;;;;;;;6.20;4.50;;;7.40;99.90;;;;;;21101746;28;20469;-66
2022/11/09 00:49:20;;;;;;;5.90;4.07;;;7.30;99.90;;;;;;21141951;28;20409;-54
2022/11/09 00:59:24;;;;;;;1.38;1.10;;;7.20;99.90;;;;;;21123957;28;20048;-55
2022/11/09 01:09:27;;;;;;;1.10;0.70;;;7.60;99.90;;;;;;21139467;28;20054;-57
2022/11/09 01:19:31;;;;;;;2.65;0.73;;;8.50;99.90;;;;;;21137838;28;20370;-68
2022/11/09 01:29:34;;;;;;;1.15;0.60;;;8.80;99.90;;;;;;21121635;28;20031;-68
2022/11/09 01:39:38;;;;;;;6.45;3.50;;;9.40;99.90;;;;;;21120523;28;20040;-62
2022/11/09 01:49:47;;;;;;;0.95;0.35;;;9.60;99.90;;;;;;21136370;28;20089;-57
2022/11/09 01:59:57;;;;;;;0.63;0.40;;;9.50;99.90;;;;;;21136666;28;20373;-67
2022/11/09 02:10:40;;;;;;;1.65;0.43;;;9.80;99.90;;;;;;21135887;28;20031;-68
2022/11/09 02:20:51;;;;;;;8.85;6.50;;;10.00;99.90;;;;;;21118946;28;20488;-68
2022/11/09 02:30:56;;;;;;;12.52;7.75;;;9.60;99.90;;;;;;21138394;28;20036;-57
2022/11/09 02:41:00;;;;;;;9.30;6.95;;;8.20;99.90;;;;;;21100494;28;20032;-57
2022/11/09 02:51:02;;;;;;;10.43;7.13;;;7.60;99.90;;;;;;21074960;28;20047;-55
2022/11/09 03:01:06;;;;;;;15.23;8.20;;;7.30;99.90;;;;;;21151343;28;20480;-66
2022/11/09 03:11:11;;;;;;;13.77;9.05;;;7.20;99.90;;;;;;21148799;28;20043;-58
2022/11/09 03:21:16;;;;;;;16.42;9.20;;;7.10;99.90;;;;;;21108077;28;20075;-57
2022/11/09 03:31:20;;;;;;;13.73;9.30;;;6.80;99.90;;;;;;21063236;28;20032;-66
2022/11/09 03:41:25;;;;;;;17.90;11.45;;;6.80;99.90;;;;;;20827145;28;20037;-54
2022/11/09 03:51:27;;;;;;;22.08;14.05;;;6.60;99.90;;;;;;20787964;28;20049;-56
2022/11/09 04:01:30;;;;;;;22.05;14.73;;;6.30;99.90;;;;;;20787927;28;20333;-56
2022/11/09 04:11:32;;;;;;;21.60;15.02;;;6.10;99.90;;;;;;20803028;28;20046;-58
2022/11/09 04:21:36;;;;;;;26.45;16.08;;;6.00;99.90;;;;;;20993835;28;20044;-58
2022/11/09 04:31:38;;;;;;;23.42;14.55;;;6.00;99.90;;;;;;21143003;28;20476;-57
2022/11/09 04:41:41;;;;;;;26.42;16.80;;;5.90;99.90;;;;;;21116522;28;20036;-66
2022/11/09 04:51:43;;;;;;;30.08;18.10;;;5.90;99.90;;;;;;21132740;28;20500;-56
2022/11/09 05:01:46;;;;;;;32.38;20.55;;;5.80;99.90;;;;;;21140596;28;20492;-66
2022/11/09 05:11:51;;;;;;;30.83;19.92;;;5.80;99.90;;;;;;21131137;28;20031;-55
2022/11/09 05:21:54;;;;;;;36.80;21.05;;;5.70;99.90;;;;;;21138391;28;20035;-56
2022/11/09 05:31:56;;;;;;;33.47;19.60;;;5.70;99.90;;;;;;21138375;28;20035;-56
2022/11/09 05:41:59;;;;;;;32.22;19.98;;;5.70;99.90;;;;;;21136934;28;20036;-56
2022/11/09 05:52:02;;;;;;;37.03;22.17;;;5.90;99.90;;;;;;21136582;28;20040;-59
2022/11/09 06:02:04;;;;;;;38.75;23.60;;;5.90;99.90;;;;;;21119900;28;20040;-67
2022/11/09 06:12:07;;;;;;;48.13;27.33;;;5.90;99.90;;;;;;21127164;28;20088;-68
2022/11/09 06:22:11;;;;;;;29.30;16.98;;;6.00;99.90;;;;;;21135294;28;20032;-61
2022/11/09 06:32:14;;;;;;;44.58;26.25;;;6.10;99.90;;;;;;21135646;28;20031;-60
2022/11/09 06:42:16;;;;;;;33.67;19.10;;;6.90;99.90;;;;;;21118821;28;20031;-60
2022/11/09 06:52:19;;;;;;;50.97;26.30;;;6.50;99.90;;;;;;21125629;28;20516;-66
2022/11/09 07:02:21;;;;;;;30.67;17.75;;;6.80;99.90;;;;;;21078100;28;20040;-57
2022/11/09 07:12:24;;;;;;;27.38;16.60;;;6.90;99.90;;;;;;21113314;28;20438;-58
2022/11/09 07:22:27;;;;;;;7.95;5.45;;;7.10;99.90;;;;;;21142329;28;20084;-58
2022/11/09 07:32:37;;;;;;;3.95;1.60;;;6.90;99.90;;;;;;21147738;28;20031;-59
2022/11/09 07:42:40;;;;;;;1.20;0.73;;;7.90;99.90;;;;;;21146749;28;20088;-58
2022/11/09 07:52:42;;;;;;;1.92;0.65;;;8.90;99.90;;;;;;21145651;28;20044;-61
2022/11/09 08:02:48;;;;;;;1.38;0.60;;;9.20;99.90;;;;;;21145335;28;20039;-59
2022/11/09 08:13:00;;;;;;;1.77;0.32;;;9.50;99.90;;;;;;21144369;28;20557;-66
2022/11/09 08:23:03;;;;;;;5.72;4.20;;;9.70;99.90;;;;;;21143176;28;20044;-60
2022/11/09 08:33:06;;;;;;;2.75;0.50;;;9.70;99.90;;;;;;21142340;28;20036;-67
2022/11/09 08:43:10;;;;;;;2.10;0.43;;;9.80;99.90;;;;;;21141229;28;20542;-61
2022/11/09 08:53:13;;;;;;;7.80;4.65;;;11.20;99.90;;;;;;21124195;28;20051;-61
2022/11/09 09:03:16;;;;;;;7.22;4.95;;;11.40;99.90;;;;;;21140572;28;20480;-61
2022/11/09 09:13:21;;;;;;;6.47;4.57;;;10.70;99.90;;;;;;21131120;28;20081;-68
2022/11/09 09:23:24;;;;;;;6.43;4.78;;;10.40;99.90;;;;;;21130449;28;20043;-61
2022/11/09 09:33:27;;;;;;;7.03;5.07;;;10.30;99.90;;;;;;21138756;28;20498;-68
2022/11/09 09:43:40;;;;;;;8.20;5.68;;;9.80;99.90;;;;;;21046982;28;20438;-67
2022/11/09 09:53:52;;;;;;;6.95;5.80;;;9.60;99.90;;;;;;21107447;28;20073;-59
2022/11/09 10:03:56;;;;;;;11.15;5.70;;;9.00;99.90;;;;;;21138033;28;20039;-68
2022/11/09 10:13:58;;;;;;;8.02;5.90;;;8.90;99.90;;;;;;21129123;28;20035;-68
2022/11/09 10:24:20;;;;;;;7.53;5.90;;;9.00;99.90;;;;;;21135712;28;20058;-69
2022/11/09 10:34:32;;;;;;;7.60;5.22;;;9.20;99.90;;;;;;21102038;28;20069;-69
2022/11/09 10:44:34;;;;;;;7.80;4.20;;;9.40;99.90;;;;;;21134559;28;20032;-70
2022/11/09 10:55:23;;;;;;;7.03;5.53;;;9.40;99.90;;;;;;21111615;28;20109;-60
2022/11/09 11:05:57;;;;;;;8.70;6.35;;;9.80;99.90;;;;;;21085981;28;20541;-58
2022/11/09 11:16:24;;;;;;;6.07;3.90;;;9.50;99.90;;;;;;21149812;28;20092;-69
2022/11/09 11:26:58;;;;;;;6.50;5.00;;;9.60;99.90;;;;;;21148239;28;20089;-69
2022/11/09 11:37:45;;;;;;;5.60;4.57;;;9.90;99.90;;;;;;21138918;28;20035;-69
2022/11/09 11:48:24;;;;;;;6.20;3.53;;;9.50;99.90;;;;;;21161921;28;20096;-61
2022/11/09 11:59:33;;;;;;;3.25;2.00;;;10.80;99.90;;;;;;21142107;28;20035;-69
2022/11/09 12:10:27;;;;;;;5.85;3.85;;;11.00;99.90;;;;;;21144087;28;20073;-59
2022/11/09 12:21:06;;;;;;;4.07;3.03;;;10.60;99.90;;;;;;21143482;28;20089;-68
2022/11/09 12:31:49;;;;;;;7.30;3.72;;;10.30;99.90;;;;;;21129056;28;20035;-69
2022/11/09 12:42:19;;;;;;;5.38;4.05;;;10.20;99.90;;;;;;21141909;28;20084;-59
2022/11/09 12:52:41;;;;;;;7.65;5.70;;;10.00;99.90;;;;;;21141702;28;20039;-60
2022/11/09 13:03:05;;;;;;;9.60;6.75;;;9.70;99.90;;;;;;21057649;28;20043;-67
2022/11/09 13:13:26;;;;;;;6.50;5.15;;;9.20;99.90;;;;;;21133287;28;20040;-60
2022/11/09 13:23:52;;;;;;;6.68;5.07;;;9.10;99.90;;;;;;21119887;28;20057;-59
2022/11/09 13:34:39;;;;;;;9.20;6.63;;;9.20;99.90;;;;;;21137843;28;20681;-58
2022/11/09 13:45:38;;;;;;;8.45;6.82;;;9.10;99.90;;;;;;21137835;28;20039;-63
2022/11/09 13:56:23;;;;;;;10.50;7.47;;;9.10;99.90;;;;;;20713993;28;20076;-67
2022/11/09 14:06:44;;;;;;;3.60;3.30;;;9.20;99.90;;;;;;20713444;28;20058;-59
2022/11/09 14:17:25;;;;;;;3.28;1.80;;;9.40;99.90;;;;;;20712921;28;20050;-67
2022/11/09 14:27:56;;;;;;;6.28;5.35;;;9.40;99.90;;;;;;20997413;28;20039;-57
2022/11/09 14:38:25;;;;;;;4.80;2.83;;;9.00;99.90;;;;;;21152199;28;20036;-65
2022/11/09 14:48:51;;;;;;;5.75;3.88;;;8.90;99.90;;;;;;21151203;28;20047;-58
2022/11/09 14:59:20;;;;;;;4.82;3.38;;;9.10;99.90;;;;;;21134008;28;20040;-66
2022/11/09 15:09:46;;;;;;;6.13;4.50;;;9.10;99.90;;;;;;21149873;28;20096;-58
2022/11/09 15:20:07;;;;;;;6.03;3.90;;;8.90;99.90;;;;;;21148477;28;20040;-63
2022/11/09 15:30:48;;;;;;;4.60;3.17;;;8.80;99.90;;;;;;21136362;28;20039;-58
2022/11/09 15:41:13;;;;;;;5.70;2.80;;;8.80;99.90;;;;;;21145900;28;20096;-53
2022/11/09 15:51:34;;;;;;;3.08;2.33;;;8.80;99.90;;;;;;21146019;28;20281;-66
2022/11/09 16:01:55;;;;;;;121.72;7.68;;;8.70;99.90;;;;;;21145770;28;20378;-66
2022/11/09 16:12:17;;;;;;;345.63;13.85;;;8.70;99.90;;;;;;21128756;28;20043;-65
2022/11/09 16:22:38;;;;;;;5.50;4.15;;;8.70;99.90;;;;;;21143501;28;20080;-65
2022/11/09 16:32:59;;;;;;;651.55;24.08;;;8.50;99.90;;;;;;21128928;28;20089;-54
2022/11/09 16:43:20;;;;;;;396.90;15.65;;;8.60;99.90;;;;;;21134027;28;20035;-66
2022/11/09 16:53:41;;;;;;;6.60;3.85;;;8.60;99.90;;;;;;21141371;28;20203;-65
2022/11/09 17:04:03;;;;;;;138.40;8.63;;;8.50;99.90;;;;;;21140872;28;20365;-66
2022/11/09 17:14:28;;;;;;;27.02;2.10;;;8.50;99.90;;;;;;21140205;28;20370;-66
2022/11/09 17:24:49;;;;;;;2.92;2.30;;;8.50;99.90;;;;;;21120652;28;20092;-66
2022/11/09 17:35:13;;;;;;;4.32;2.25;;;8.60;99.90;;;;;;21139100;28;20146;-56
2022/11/09 17:45:35;;;;;;;5.20;3.95;;;8.80;99.90;;;;;;21137619;28;20100;-56
2022/11/09 17:55:56;;;;;;;20.83;7.38;;;9.00;99.90;;;;;;21136880;28;20051;-67
2022/11/09 18:06:20;;;;;;;195.20;12.23;;;9.10;99.90;;;;;;21135859;28;20439;-66
2022/11/09 18:16:42;;;;;;;460.65;14.25;;;9.10;99.90;;;;;;21136738;28;20040;-55
2022/11/09 18:27:04;;;;;;;193.50;6.82;;;9.00;99.90;;;;;;21117767;28;20442;-57
2022/11/09 18:37:25;;;;;;;395.17;15.18;;;8.80;99.90;;;;;;21136561;28;20061;-55
2022/11/09 18:47:49;;;;;;;1076.47;37.80;;;8.90;99.90;;;;;;21106105;28;20313;-57
2022/11/09 18:58:11;;;;;;;292.67;12.95;;;9.00;99.90;;;;;;21126055;28;20151;-65
2022/11/09 19:19:23;;;;;;;;;;;9.10;99.90;;;;;;21126997;28;20082;-57
2022/11/09 19:29:45;;;;;;;206.40;13.95;;;9.10;99.90;;;;;;21144817;28;20537;-65
2022/11/09 19:40:07;;;;;;;233.07;14.93;;;9.10;99.90;;;;;;21147621;28;20155;-55
2022/11/09 19:50:37;;;;;;;11.73;6.45;;;9.10;99.90;;;;;;21138265;28;20044;-57
2022/11/09 20:01:16;;;;;;;309.08;9.70;;;9.10;99.90;;;;;;21146023;28;20440;-65
2022/11/09 20:22:51;;;;;;;75.68;1.58;;;8.90;99.90;;;;;;21135843;28;20039;-63
2022/11/09 20:33:12;;;;;;;150.63;4.32;;;8.80;99.90;;;;;;21143385;28;20036;-55
2022/11/09 20:43:35;;;;;;;105.60;2.90;;;8.80;99.90;;;;;;21136836;28;20027;-56
2022/11/09 20:54:29;;;;;;;24.73;0.50;;;8.80;99.90;;;;;;21159625;28;20052;-55
2022/11/09 21:04:49;;;;;;;5.85;0.20;;;8.80;99.90;;;;;;21135302;28;20031;-57
2022/11/09 21:15:17;;;;;;;80.45;2.08;;;8.60;99.90;;;;;;21137820;28;20089;-57
2022/11/09 21:36:42;;;;;;;90.78;2.20;;;8.60;99.90;;;;;;21137388;28;20081;-64
2022/11/09 21:47:22;;;;;;;22.85;0.40;;;8.70;99.90;;;;;;21137941;28;20032;-56
2022/11/09 21:57:55;;;;;;;47.67;1.23;;;8.60;99.90;;;;;;21137441;28;20101;-57
2022/11/09 22:08:17;;;;;;;14.63;0.28;;;8.60;99.90;;;;;;21129411;28;20047;-65
2022/11/09 22:29:18;;;;;;;1.57;0.00;;;8.50;99.90;;;;;;21051693;28;20040;-65
2022/11/09 22:39:39;;;;;;;0.00;0.00;;;8.50;99.90;;;;;;21066757;28;20108;-57
2022/11/09 22:50:00;;;;;;;0.00;0.00;;;8.40;99.90;;;;;;21056801;28;20074;-57
2022/11/09 23:00:22;;;;;;;2.42;0.00;;;8.40;99.90;;;;;;21110986;28;20032;-54
2022/11/09 23:10:52;;;;;;;0.00;0.00;;;8.40;99.90;;;;;;21129276;28;20039;-56
2022/11/09 23:21:14;;;;;;;10.02;0.10;;;8.30;99.90;;;;;;21121923;28;20027;-65
2022/11/09 23:31:35;;;;;;;3.70;0.00;;;8.30;99.90;;;;;;21148505;28;20040;-66
2022/11/09 23:41:56;;;;;;;0.10;0.00;;;8.30;99.90;;;;;;21147437;28;20035;-56
2022/11/09 23:52:17;;;;;;;67.13;1.70;;;8.20;99.90;;;;;;21146528;28;20044;-65
